Time;durP1;ratioP1;P1;durP2;ratioP2;P2;SDS_P1;SDS_P2;PMS_P1;PMS_P2;Temp;Humidity;BMP_temperature;BMP_pressure;BME280_temperature;BME280_humidity;BME280_pressure;Samples;Min_cycle;Max_cycle;Signal;HPM_P1;HPM_P2
2022/09/25 00:00:56;;;;;;;6.23;5.70;;;;;;;12.29;76.04;99777.41;5113007;28;20194;-55
2022/09/25 00:03:26;;;;;;;9.47;6.20;;;;;;;12.20;77.21;99780.25;5112566;28;20199;-59
2022/09/25 00:05:59;;;;;;;11.27;6.47;;;;;;;12.00;77.95;99744.47;5113019;28;20198;-59
2022/09/25 00:08:26;;;;;;;9.67;6.13;;;;;;;12.05;79.59;99762.53;5112720;28;20311;-59
2022/09/25 00:10:55;;;;;;;8.83;6.47;;;;;;;12.03;80.79;99768.69;5113094;28;20201;-58
2022/09/25 00:13:22;;;;;;;6.67;5.97;;;;;;;12.03;80.73;99755.69;5112821;28;20282;-57
2022/09/25 00:15:52;;;;;;;12.90;5.90;;;;;;;12.00;81.17;99767.88;5111337;28;20191;-59
2022/09/25 00:19:48;;;;;;;7.07;6.10;;;;;;;12.01;81.88;99766.13;5112471;28;20590;-58
2022/09/25 00:21:11;;;;;;;9.77;5.87;;;;;;;11.99;81.11;99765.31;5112664;28;20299;-57
2022/09/25 00:23:38;;;;;;;6.93;6.23;;;;;;;12.03;80.90;99768.69;5112686;28;20206;-58
2022/09/25 00:26:08;;;;;;;7.90;6.40;;;;;;;12.08;80.09;99771.97;5112332;28;20277;-58
2022/09/25 00:28:35;;;;;;;7.30;6.60;;;;;;;12.05;79.48;99757.34;5112137;28;20198;-57
2022/09/25 00:31:03;;;;;;;11.90;7.00;;;;;;;12.09;78.93;99766.75;5112314;28;20191;-56
2022/09/25 00:33:31;;;;;;;8.07;6.47;;;;;;;12.04;78.99;99770.41;5112066;28;20237;-54
2022/09/25 00:36:05;;;;;;;8.57;6.10;;;;;;;12.07;78.70;99763.34;5112759;28;20681;-54
2022/09/25 00:38:32;;;;;;;6.73;6.13;;;;;;;12.20;78.35;99762.06;5112046;28;20285;-54
2022/09/25 00:40:59;;;;;;;7.80;6.70;;;;;;;12.29;77.89;99761.78;5112092;28;20205;-54
2022/09/25 00:43:39;;;;;;;7.47;6.77;;;;;;;12.12;77.77;99737.19;5112010;28;20285;-55
2022/09/25 00:46:12;;;;;;;6.83;6.00;;;;;;;12.10;79.04;99747.63;5112094;28;20313;-55
2022/09/25 00:48:50;;;;;;;7.10;6.40;;;;;;;12.08;79.35;99752.03;5111824;28;20198;-54
2022/09/25 00:51:21;;;;;;;7.13;6.10;;;;;;;12.02;79.36;99760.03;5112036;28;20209;-55
2022/09/25 00:53:49;;;;;;;8.00;5.97;;;;;;;11.94;79.42;99749.88;5112095;28;20190;-55
2022/09/25 00:56:16;;;;;;;6.20;5.70;;;;;;;11.86;79.52;99754.44;5112216;28;20220;-54
2022/09/25 00:58:45;;;;;;;7.03;6.37;;;;;;;11.80;79.78;99757.22;5111499;28;20198;-54
2022/09/25 01:01:12;;;;;;;7.47;6.77;;;;;;;11.79;80.42;99745.13;5111784;28;20195;-54
2022/09/25 01:03:43;;;;;;;9.90;6.83;;;;;;;11.75;80.24;99753.00;5111476;28;20195;-54
2022/09/25 01:06:11;;;;;;;7.23;6.37;;;;;;;11.68;80.30;99747.16;5111797;28;20652;-54
2022/09/25 01:08:39;;;;;;;7.10;6.50;;;;;;;11.73;80.26;99754.84;5111568;28;20678;-54
2022/09/25 01:11:06;;;;;;;6.93;6.33;;;;;;;11.66;80.69;99748.94;5111412;28;20219;-54
2022/09/25 01:13:33;;;;;;;7.83;6.77;;;;;;;11.66;80.89;99748.94;5111288;28;20199;-55
2022/09/25 01:16:08;;;;;;;6.83;6.27;;;;;;;11.63;81.35;99742.09;5111335;28;20198;-58
2022/09/25 01:18:46;;;;;;;10.47;7.40;;;;;;;11.59;81.90;99745.69;5111142;28;20202;-58
2022/09/25 01:21:26;;;;;;;9.27;7.90;;;;;;;11.53;82.68;99743.25;5111658;28;20578;-58
2022/09/25 01:24:18;;;;;;;8.83;7.10;;;;;;;11.50;82.86;99748.56;5111283;28;20204;-58
2022/09/25 01:27:20;;;;;;;7.23;6.63;;;;;;;11.45;83.10;99753.03;5111091;28;20202;-59
2022/09/25 01:29:55;;;;;;;8.67;7.03;;;;;;;11.48;82.82;99744.28;5111281;28;20264;-59
2022/09/25 01:32:29;;;;;;;8.03;7.23;;;;;;;11.40;82.76;99739.28;5111079;28;20226;-59
2022/09/25 01:35:01;;;;;;;7.70;6.80;;;;;;;11.24;83.57;99725.91;5111084;28;20234;-59
2022/09/25 01:37:33;;;;;;;10.17;6.93;;;;;;;11.29;84.74;99739.59;5110831;28;20198;-58
2022/09/25 01:40:08;;;;;;;11.63;7.00;;;;;;;11.21;84.90;99744.16;5111146;28;21069;-59
2022/09/25 01:42:40;;;;;;;7.27;6.57;;;;;;;11.19;84.79;99745.09;5110837;28;20281;-60
2022/09/25 01:45:15;;;;;;;7.97;7.17;;;;;;;11.14;84.97;99744.38;5111007;28;20191;-54
2022/09/25 01:47:47;;;;;;;9.27;7.43;;;;;;;11.05;85.25;99740.31;5110682;28;20243;-59
2022/09/25 01:50:20;;;;;;;8.33;7.00;;;;;;;11.01;84.92;99741.25;5110846;28;20222;-54
2022/09/25 01:52:50;;;;;;;8.20;7.40;;;;;;;10.98;84.60;99749.13;5110921;28;20206;-54
2022/09/25 01:55:21;;;;;;;7.63;6.47;;;;;;;11.07;84.19;99748.03;5110828;28;20201;-54
2022/09/25 01:57:53;;;;;;;8.20;6.63;;;;;;;11.05;83.97;99749.84;5111141;28;20678;-55
2022/09/25 02:00:24;;;;;;;7.73;7.10;;;;;;;11.01;83.59;99748.19;5110756;28;20197;-54
2022/09/25 02:02:56;;;;;;;7.13;6.43;;;;;;;10.96;83.64;99747.47;5110762;27;20666;-59
2022/09/25 02:05:29;;;;;;;7.17;6.47;;;;;;;10.93;83.83;99752.75;5110568;28;20205;-58
2022/09/25 02:08:01;;;;;;;7.77;7.07;;;;;;;10.86;84.74;99757.25;5110548;28;20265;-58
2022/09/25 02:10:34;;;;;;;9.13;7.30;;;;;;;10.78;84.64;99752.25;5109324;28;20233;-58
2022/09/25 02:13:08;;;;;;;9.30;7.00;;;;;;;10.84;84.33;99746.91;5110526;28;20305;-59
2022/09/25 02:15:39;;;;;;;8.20;7.23;;;;;;;10.95;84.38;99756.19;5110206;28;20199;-59
2022/09/25 02:20:59;;;;;;;6.93;5.90;;;;;;;10.77;86.40;99755.75;5110223;28;20223;-59
2022/09/25 02:23:37;;;;;;;13.43;6.93;;;;;;;10.66;87.46;99762.09;5110069;28;20509;-59
2022/09/25 02:26:07;;;;;;;11.60;6.97;;;;;;;10.63;88.28;99770.81;5110261;28;20194;-55
2022/09/25 02:28:35;;;;;;;7.67;6.73;;;;;;;10.43;88.79;99740.16;5110046;28;20234;-54
2022/09/25 02:31:07;;;;;;;8.17;7.37;;;;;;;10.60;89.21;99767.47;5110010;28;20313;-55
2022/09/25 02:33:34;;;;;;;9.27;6.80;;;;;;;10.53;89.04;99769.34;5110152;28;20238;-54
2022/09/25 02:36:04;;;;;;;9.57;6.57;;;;;;;10.54;89.39;99758.06;5110275;28;20644;-55
2022/09/25 02:38:33;;;;;;;10.60;7.83;;;;;;;10.52;89.64;99760.69;5110062;28;20208;-54
2022/09/25 02:41:10;;;;;;;9.90;6.63;;;;;;;10.43;89.67;99747.09;5109905;28;20205;-54
2022/09/25 02:43:45;;;;;;;8.23;6.77;;;;;;;10.42;90.73;99748.84;5109944;28;20201;-53
2022/09/25 02:46:21;;;;;;;7.67;6.90;;;;;;;10.50;90.48;99767.66;5110077;28;20582;-53
2022/09/25 02:48:54;;;;;;;8.10;6.20;;;;;;;10.47;90.41;99756.53;5110129;28;20673;-54
2022/09/25 02:51:29;;;;;;;7.03;6.33;;;;;;;10.43;89.69;99760.06;5109934;28;20629;-55
2022/09/25 02:54:05;;;;;;;6.90;6.20;;;;;;;10.44;89.94;99754.84;5109954;28;20197;-54
2022/09/25 02:56:37;;;;;;;7.13;6.30;;;;;;;10.44;90.10;99760.03;5109667;28;20290;-54
2022/09/25 02:59:08;;;;;;;7.50;6.77;;;;;;;10.40;90.47;99760.13;5109995;28;20273;-54
2022/09/25 03:01:41;;;;;;;9.00;6.80;;;;;;;10.39;90.00;99761.03;5109829;28;20286;-54
2022/09/25 03:04:10;;;;;;;8.03;6.30;;;;;;;10.34;89.74;99766.34;5109749;28;20201;-58
2022/09/25 03:06:38;;;;;;;6.30;5.70;;;;;;;10.38;88.21;99772.31;5109582;28;20205;-59
2022/09/25 03:09:09;;;;;;;6.23;5.63;;;;;;;10.30;88.46;99769.88;5109814;28;20582;-59
2022/09/25 03:11:42;;;;;;;6.40;5.90;;;;;;;10.26;88.30;99767.41;5109517;28;20313;-59
2022/09/25 03:14:12;;;;;;;6.53;6.03;;;;;;;10.21;89.13;99772.69;5109656;28;20275;-59
2022/09/25 03:16:46;;;;;;;6.13;5.63;;;;;;;10.16;89.76;99771.91;5109618;28;20236;-55
2022/09/25 03:19:14;;;;;;;7.30;6.70;;;;;;;9.86;89.17;99725.94;5109526;28;20286;-55
2022/09/25 03:21:40;;;;;;;7.07;6.20;;;;;;;10.17;90.25;99781.41;5110922;28;20201;-54
2022/09/25 03:24:07;;;;;;;6.47;5.87;;;;;;;10.16;89.79;99777.09;5113652;28;20201;-54
2022/09/25 03:26:34;;;;;;;6.63;6.13;;;;;;;10.12;90.21;99775.47;5113721;28;20216;-54
2022/09/25 03:29:01;;;;;;;6.83;6.23;;;;;;;10.06;91.12;99773.00;5113475;28;20200;-58
2022/09/25 03:31:28;;;;;;;8.30;6.67;;;;;;;10.10;91.10;99767.72;5113314;28;20218;-58
2022/09/25 03:33:58;;;;;;;9.10;6.57;;;;;;;10.09;91.42;99762.56;5113345;28;20306;-58
2022/09/25 03:36:26;;;;;;;7.27;6.60;;;;;;;10.07;91.61;99765.19;5113480;28;20201;-58
2022/09/25 03:38:57;;;;;;;8.73;6.60;;;;;;;10.09;91.62;99758.25;5113592;28;20201;-58
2022/09/25 03:41:26;;;;;;;8.03;7.13;;;;;;;10.14;91.19;99748.63;5113328;28;20193;-58
2022/09/25 03:43:55;;;;;;;9.90;7.23;;;;;;;10.12;91.32;99750.41;5113258;28;20202;-54
2022/09/25 03:46:25;;;;;;;7.47;6.77;;;;;;;10.13;91.70;99739.13;5113039;28;20203;-58
2022/09/25 03:48:52;;;;;;;8.90;7.17;;;;;;;10.19;91.77;99748.53;5113010;28;20195;-58
2022/09/25 03:51:22;;;;;;;8.33;7.47;;;;;;;10.17;90.76;99729.53;5113420;28;20249;-58
2022/09/25 03:53:50;;;;;;;8.03;7.33;;;;;;;10.29;90.04;99738.78;5113276;28;20273;-55
2022/09/25 03:56:19;;;;;;;7.27;6.57;;;;;;;10.29;90.35;99744.84;5108203;28;20232;-55
2022/09/25 03:58:47;;;;;;;8.27;6.57;;;;;;;10.23;91.00;99746.72;5091836;28;20656;-54
2022/09/25 04:01:14;;;;;;;7.73;7.00;;;;;;;10.21;92.11;99762.31;5092312;28;20746;-55
2022/09/25 04:03:46;;;;;;;9.93;6.83;;;;;;;10.28;91.05;99753.50;5091353;28;20219;-55
2022/09/25 04:06:13;;;;;;;10.10;7.10;;;;;;;10.31;91.34;99753.44;5091888;28;20215;-56
2022/09/25 04:08:42;;;;;;;7.97;7.10;;;;;;;10.25;90.65;99734.59;5091586;28;20219;-54
2022/09/25 04:11:09;;;;;;;10.20;7.33;;;;;;;10.34;91.19;99755.09;5092228;28;20259;-56
2022/09/25 04:13:37;;;;;;;9.17;8.13;;;;;;;10.24;93.36;99761.41;5091499;28;20556;-57
2022/09/25 04:16:06;;;;;;;12.63;8.43;;;;;;;10.17;94.91;99751.13;5091889;28;20607;-57
2022/09/25 04:18:34;;;;;;;14.80;9.27;;;;;;;10.19;95.70;99751.97;5091069;28;20341;-56
2022/09/25 04:21:02;;;;;;;13.83;10.00;;;;;;;10.16;96.54;99753.75;5109047;27;20595;-56
2022/09/25 04:23:29;;;;;;;12.37;9.60;;;;;;;10.14;97.72;99748.63;5110457;28;20285;-55
2022/09/25 04:25:57;;;;;;;13.57;8.53;;;;;;;10.24;96.56;99751.03;5111031;28;20209;-55
2022/09/25 04:28:25;;;;;;;13.97;9.23;;;;;;;10.37;95.29;99747.25;5111404;28;20195;-55
2022/09/25 04:30:52;;;;;;;9.73;8.47;;;;;;;10.42;94.77;99753.19;5111398;28;20220;-55
2022/09/25 04:36:04;;;;;;;9.63;7.50;;;;;;;10.34;95.88;99770.69;5106582;28;20641;-55
2022/09/25 04:38:31;;;;;;;10.80;8.00;;;;;;;10.27;95.81;99748.38;5110788;28;20677;-55
2022/09/25 04:41:01;;;;;;;11.93;8.70;;;;;;;10.25;96.41;99732.00;5110919;28;20211;-54
2022/09/25 04:43:29;;;;;;;9.90;8.43;;;;;;;10.43;95.28;99757.47;5110666;28;20297;-54
2022/09/25 04:45:56;;;;;;;13.57;8.77;;;;;;;10.58;93.99;99759.72;5110879;28;20307;-54
2022/09/25 04:48:23;;;;;;;9.10;8.20;;;;;;;10.57;93.03;99764.94;5109980;28;20313;-55
2022/09/25 04:50:51;;;;;;;9.40;7.43;;;;;;;10.58;91.49;99769.25;5110541;28;20230;-55
2022/09/25 04:53:18;;;;;;;8.03;7.23;;;;;;;10.61;91.47;99775.19;5110545;27;20253;-56
2022/09/25 04:55:46;;;;;;;10.70;7.60;;;;;;;10.66;91.48;99781.13;5108694;28;20225;-56
2022/09/25 04:58:15;;;;;;;8.60;7.53;;;;;;;10.65;90.31;99776.81;5110023;28;20224;-55
2022/09/25 05:00:42;;;;;;;7.97;7.27;;;;;;;10.75;89.26;99786.09;5109777;28;20380;-58
2022/09/25 05:03:09;;;;;;;8.73;7.57;;;;;;;10.76;89.14;99785.19;5109817;28;20236;-58
2022/09/25 05:05:36;;;;;;;8.13;7.43;;;;;;;10.76;88.37;99792.97;5109868;28;20232;-58
2022/09/25 05:08:03;;;;;;;9.33;8.33;;;;;;;10.88;87.09;99789.22;5110177;28;20229;-59
2022/09/25 05:10:33;;;;;;;10.37;8.90;;;;;;;10.85;86.83;99764.19;5109853;28;20234;-58
2022/09/25 05:13:02;;;;;;;11.13;10.03;;;;;;;11.31;85.33;99783.72;5110296;27;20642;-58
2022/09/25 05:15:32;;;;;;;12.50;10.30;;;;;;;12.21;80.33;99794.13;5110109;28;20242;-58
2022/09/25 05:18:00;;;;;;;15.20;9.37;;;;;;;13.56;72.75;99802.59;5109479;28;20577;-59
2022/09/25 05:20:27;;;;;;;9.33;8.57;;;;;;;15.16;64.36;99802.34;5109946;28;20218;-59
2022/09/25 05:22:55;;;;;;;7.87;7.17;;;;;;;16.84;56.17;99808.53;5109624;28;20222;-55
2022/09/25 05:25:23;;;;;;;8.23;6.53;;;;;;;17.74;51.96;99828.38;5109875;28;20214;-56
2022/09/25 05:27:51;;;;;;;7.40;6.67;;;;;;;18.64;48.97;99820.78;5109829;28;20626;-56
2022/09/25 05:30:19;;;;;;;6.63;6.17;;;;;;;19.92;45.70;99824.53;5109652;28;20275;-56
2022/09/25 05:32:51;;;;;;;10.07;6.07;;;;;;;20.88;43.20;99836.81;5108960;28;20218;-56
2022/09/25 05:35:18;;;;;;;8.30;5.82;;;;;;;21.96;40.50;99831.22;5109304;28;20230;-56
2022/09/25 05:37:45;;;;;;;11.27;5.82;;;;;;;22.46;38.46;99838.19;5109515;28;20309;-58
2022/09/25 05:40:14;;;;;;;8.88;5.68;;;;;;;22.73;38.08;99833.53;5109395;28;20222;-59
2022/09/25 05:42:42;;;;;;;7.93;5.03;;;;;;;23.13;37.08;99835.91;5109477;27;20219;-59
2022/09/25 05:45:10;;;;;;;5.88;5.50;;;;;;;23.84;35.46;99838.31;5108862;27;20578;-59
2022/09/25 05:47:37;;;;;;;6.13;5.53;;;;;;;24.82;34.17;99846.38;5109276;28;20245;-58
2022/09/25 05:50:08;;;;;;;6.00;5.60;;;;;;;25.00;33.85;99842.22;5109649;28;20612;-59
2022/09/25 05:52:36;;;;;;;5.65;5.25;;;;;;;24.86;33.49;99842.47;5109351;28;20657;-59
2022/09/25 05:55:05;;;;;;;5.32;4.93;;;;;;;24.68;33.69;99844.84;5109498;28;20229;-56
2022/09/25 05:57:33;;;;;;;5.82;5.38;;;;;;;25.17;33.04;99846.94;5108988;28;20586;-55
2022/09/25 06:00:00;;;;;;;5.45;4.95;;;;;;;26.07;31.30;99815.28;5110395;28;20223;-55
2022/09/25 06:02:27;;;;;;;5.38;4.97;;;;;;;27.46;29.79;99836.28;5109721;28;20686;-56
2022/09/25 06:04:54;;;;;;;5.25;4.82;;;;;;;27.13;29.70;99835.91;5109969;28;20228;-55
2022/09/25 06:07:22;;;;;;;4.97;4.60;;;;;;;27.33;29.34;99833.06;5109821;28;20640;-55
2022/09/25 06:09:49;;;;;;;4.45;4.25;;;;;;;28.23;28.43;99837.00;5110188;28;20218;-55
2022/09/25 06:12:17;;;;;;;5.03;4.63;;;;;;;28.59;27.78;99833.41;5109691;28;20687;-56
2022/09/25 06:14:44;;;;;;;5.50;5.20;;;;;;;27.71;28.66;99837.50;5110089;28;20279;-54
2022/09/25 06:17:12;;;;;;;5.35;4.85;;;;;;;27.86;28.37;99829.03;5109379;28;20241;-55
2022/09/25 06:19:39;;;;;;;6.75;4.60;;;;;;;27.50;28.77;99833.31;5109456;28;20304;-54
2022/09/25 06:22:06;;;;;;;5.45;5.05;;;;;;;28.44;27.69;99834.94;5109849;28;20250;-54
2022/09/25 06:24:34;;;;;;;5.20;4.80;;;;;;;29.55;26.30;99840.63;5109301;28;20294;-54
2022/09/25 06:27:01;;;;;;;4.80;4.43;;;;;;;29.32;26.26;99841.28;5109911;28;20375;-55
2022/09/25 06:29:28;;;;;;;4.45;4.13;;;;;;;29.33;25.99;99841.13;5109479;28;20226;-55
2022/09/25 06:31:55;;;;;;;5.38;4.90;;;;;;;29.41;26.27;99841.19;5109053;28;20238;-55
2022/09/25 06:34:22;;;;;;;5.88;5.38;;;;;;;30.08;25.25;99839.59;5109229;28;20239;-58
2022/09/25 06:36:49;;;;;;;5.35;5.03;;;;;;;30.72;25.21;99834.59;5109757;28;20222;-59
2022/09/25 06:39:16;;;;;;;5.18;4.78;;;;;;;31.28;24.21;99833.81;5109211;28;20792;-59
2022/09/25 06:41:45;;;;;;;5.80;5.18;;;;;;;31.40;24.23;99829.75;5109420;28;20246;-59
2022/09/25 06:44:12;;;;;;;5.68;5.18;;;;;;;31.20;24.40;99828.44;5109543;28;20305;-58
2022/09/25 06:46:45;;;;;;;5.35;4.95;;;;;;;32.73;23.19;99831.66;5108777;28;20309;-55
2022/09/25 06:49:13;;;;;;;5.40;5.00;;;;;;;33.10;22.03;99834.38;5109277;28;20221;-56
2022/09/25 06:51:40;;;;;;;5.93;5.30;;;;;;;32.41;23.07;99832.66;5109113;28;20329;-55
2022/09/25 06:54:07;;;;;;;4.97;4.65;;;;;;;32.61;23.06;99825.81;5109600;28;20346;-55
2022/09/25 06:56:34;;;;;;;5.05;4.75;;;;;;;32.72;22.95;99840.75;5112023;28;20225;-57
2022/09/25 06:59:02;;;;;;;6.53;5.22;;;;;;;33.14;22.59;99826.78;5116482;27;20618;-56
2022/09/25 07:01:29;;;;;;;5.97;5.43;;;;;;;33.60;21.89;99819.47;5115672;27;20222;-55
2022/09/25 07:03:55;;;;;;;6.68;5.70;;;;;;;33.81;21.24;99833.06;5115988;27;20218;-58
2022/09/25 07:06:25;;;;;;;6.25;5.65;;;;;;;34.03;21.68;99822.34;5115804;27;20677;-59
2022/09/25 07:08:55;;;;;;;8.00;6.28;;;;;;;34.13;21.28;99825.59;5116142;27;20229;-62
2022/09/25 07:11:23;;;;;;;6.28;5.78;;;;;;;34.83;20.96;99838.47;5115857;27;20229;-58
2022/09/25 07:13:51;;;;;;;10.57;5.90;;;;;;;35.20;20.41;99830.09;5116038;27;20315;-55
2022/09/25 07:16:20;;;;;;;6.03;5.60;;;;;;;35.85;19.92;99834.31;5115516;27;20214;-60
2022/09/25 07:18:49;;;;;;;5.80;5.30;;;;;;;35.29;20.55;99845.13;5115884;27;20218;-59
2022/09/25 07:21:18;;;;;;;7.03;6.53;;;;;;;35.32;20.53;99835.81;5115889;27;20305;-59
2022/09/25 07:23:47;;;;;;;5.90;5.50;;;;;;;34.59;20.86;99842.31;5115947;27;20226;-59
2022/09/25 07:26:16;;;;;;;5.57;5.28;;;;;;;34.21;21.30;99826.31;5115995;27;20717;-58
2022/09/25 07:28:44;;;;;;;7.25;4.95;;;;;;;34.77;20.86;99836.50;5116007;27;20218;-59
2022/09/25 07:31:15;;;;;;;6.03;5.43;;;;;;;34.88;20.50;99841.41;5114088;27;20266;-59
2022/09/25 07:33:44;;;;;;;6.60;6.00;;;;;;;33.26;21.91;99835.28;5110475;28;20255;-58
2022/09/25 07:36:11;;;;;;;6.20;5.75;;;;;;;31.16;23.84;99832.47;5114214;27;20187;-59
2022/09/25 07:38:39;;;;;;;7.32;6.82;;;;;;;30.09;25.06;99825.22;5113693;28;20554;-59
2022/09/25 07:41:07;;;;;;;6.63;6.22;;;;;;;29.81;25.57;99824.53;5115351;28;20638;-60
2022/09/25 07:43:35;;;;;;;6.47;5.97;;;;;;;30.04;24.89;99826.69;5115039;27;20190;-59
2022/09/25 07:46:02;;;;;;;7.97;7.32;;;;;;;29.94;25.39;99824.94;5107815;27;20282;-60
2022/09/25 07:48:30;;;;;;;6.07;5.78;;;;;;;28.35;27.10;99817.13;5095265;28;20309;-59
2022/09/25 07:51:01;;;;;;;11.43;10.45;;;;;;;28.08;27.82;99808.13;5109495;28;20222;-59
2022/09/25 07:53:28;;;;;;;6.45;5.85;;;;;;;26.86;29.31;99801.97;5115721;28;20253;-59
2022/09/25 07:55:58;;;;;;;5.88;5.35;;;;;;;25.45;31.04;99792.31;5115652;27;20237;-58
2022/09/25 07:58:25;;;;;;;6.35;5.95;;;;;;;24.00;33.02;99792.88;5114748;27;20606;-56
2022/09/25 08:00:53;;;;;;;6.63;5.93;;;;;;;23.09;35.59;99792.91;5114080;27;20226;-64
2022/09/25 08:03:20;;;;;;;6.43;6.03;;;;;;;21.93;36.80;99789.97;5114754;27;20264;-67
2022/09/25 08:05:47;;;;;;;7.93;7.25;;;;;;;21.28;38.33;99782.22;5114580;27;20301;-65
2022/09/25 08:08:15;;;;;;;6.45;5.95;;;;;;;21.14;38.79;99781.44;5111777;27;20225;-62
2022/09/25 08:10:43;;;;;;;7.40;6.00;;;;;;;20.86;39.17;99775.41;5111560;27;20306;-66
2022/09/25 08:13:09;;;;;;;6.72;6.32;;;;;;;20.76;39.73;99769.06;5111379;27;20244;-67
2022/09/25 08:15:36;;;;;;;6.50;6.00;;;;;;;20.60;40.57;99771.00;5110491;28;20225;-68
2022/09/25 08:18:03;;;;;;;6.65;5.90;;;;;;;20.27;41.43;99761.69;5111692;28;20614;-68
2022/09/25 08:20:30;;;;;;;6.25;5.80;;;;;;;20.33;41.74;99765.69;5110876;28;20230;-68
2022/09/25 08:22:58;;;;;;;7.97;6.72;;;;;;;20.24;41.52;99771.56;5111472;28;20599;-68
2022/09/25 08:25:26;;;;;;;7.47;6.82;;;;;;;20.28;41.63;99768.66;5110270;28;20226;-61
2022/09/25 08:27:53;;;;;;;6.07;5.68;;;;;;;20.26;41.30;99764.41;5111749;28;20237;-62
2022/09/25 08:30:20;;;;;;;6.15;5.63;;;;;;;19.90;41.86;99762.34;5111477;27;20223;-61
2022/09/25 08:32:47;;;;;;;7.47;5.88;;;;;;;19.94;42.15;99763.84;5111600;28;20290;-61
2022/09/25 08:35:14;;;;;;;6.85;6.25;;;;;;;19.82;42.12;99752.28;5111802;28;20794;-62
2022/09/25 08:37:43;;;;;;;9.00;6.20;;;;;;;19.69;42.75;99756.63;5110818;28;20556;-63
2022/09/25 08:40:18;;;;;;;13.95;12.75;;;;;;;19.72;43.01;99734.53;5110116;28;20289;-62
2022/09/25 08:42:49;;;;;;;12.13;11.00;;;;;;;19.71;43.35;99749.50;5111302;28;20198;-63
2022/09/25 08:51:11;;;;;;;8.05;4.90;;;;;;;19.92;43.36;99734.97;5111907;28;20586;-62
2022/09/25 08:53:39;;;;;;;6.03;5.50;;;;;;;19.95;42.92;99741.84;5111965;28;20202;-58
2022/09/25 08:56:16;;;;;;;8.23;5.30;;;;;;;20.01;42.47;99737.94;5112147;28;20209;-57
2022/09/25 08:58:51;;;;;;;5.30;4.80;;;;;;;20.16;40.99;99737.81;5111864;28;20202;-57
2022/09/25 09:01:23;;;;;;;5.40;4.90;;;;;;;20.08;41.30;99721.66;5111939;28;20726;-57
2022/09/25 09:03:55;;;;;;;4.38;4.13;;;;;;;19.89;41.42;99695.63;5111507;28;20553;-57
2022/09/25 09:06:24;;;;;;;7.95;4.32;;;;;;;20.10;41.80;99722.38;5111816;28;20195;-58
2022/09/25 09:08:59;;;;;;;5.57;4.75;;;;;;;20.24;41.44;99735.53;5111489;28;20199;-62
2022/09/25 09:11:32;;;;;;;27.80;25.05;;;;;;;20.40;41.75;99739.84;5111463;28;20644;-63
2022/09/25 09:14:04;;;;;;;5.15;4.85;;;;;;;20.37;41.40;99732.13;5111788;28;20276;-56
2022/09/25 09:16:39;;;;;;;5.00;4.60;;;;;;;20.46;40.48;99739.41;5111532;28;20221;-56
2022/09/25 09:19:07;;;;;;;4.47;4.07;;;;;;;20.40;39.66;99734.56;5111284;28;20198;-57
2022/09/25 09:21:36;;;;;;;4.10;3.90;;;;;;;20.39;39.86;99720.53;5111433;28;20670;-57
2022/09/25 09:24:12;;;;;;;5.00;4.35;;;;;;;20.45;40.23;99716.63;5111158;28;20674;-59
2022/09/25 09:27:02;;;;;;;4.32;3.88;;;;;;;20.40;39.93;99718.75;5111181;28;20198;-58
2022/09/25 09:29:42;;;;;;;5.40;4.28;;;;;;;20.33;40.10;99717.41;5110856;27;20199;-57
2022/09/25 09:32:27;;;;;;;4.78;4.38;;;;;;;20.21;40.81;99705.88;5111251;27;20219;-58
2022/09/25 09:35:06;;;;;;;4.93;4.30;;;;;;;20.30;40.68;99698.22;5110844;28;20230;-62
2022/09/25 09:37:54;;;;;;;4.65;4.25;;;;;;;20.43;40.39;99686.91;5110569;28;20217;-61
2022/09/25 09:40:32;;;;;;;5.40;4.90;;;;;;;20.66;40.40;99688.81;5111090;28;20691;-61
2022/09/25 09:43:12;;;;;;;9.43;8.52;;;;;;;20.91;39.94;99673.03;5110823;28;20186;-63
2022/09/25 09:45:48;;;;;;;6.57;6.00;;;;;;;21.09;38.92;99664.78;5110943;28;20202;-62
2022/09/25 09:48:20;;;;;;;4.55;4.25;;;;;;;21.13;39.34;99663.59;5110770;28;20198;-63
2022/09/25 09:50:50;;;;;;;4.68;4.20;;;;;;;21.18;39.15;99649.19;5110835;28;20285;-64
2022/09/25 09:53:28;;;;;;;5.55;4.45;;;;;;;21.16;39.03;99656.34;5091017;28;20227;-63
2022/09/25 09:56:01;;;;;;;4.70;4.30;;;;;;;20.87;39.76;99661.00;5089960;28;20219;-64
2022/09/25 09:58:33;;;;;;;5.28;4.75;;;;;;;21.07;39.35;99669.31;5089968;28;20226;-63
2022/09/25 10:01:03;;;;;;;5.10;4.72;;;;;;;21.26;39.31;99669.75;5089833;28;20223;-62
2022/09/25 10:03:36;;;;;;;4.70;4.28;;;;;;;21.42;38.73;99646.59;5097266;27;20599;-61
2022/09/25 10:06:08;;;;;;;4.75;4.45;;;;;;;21.57;38.07;99649.94;5104733;28;20256;-61
2022/09/25 10:08:35;;;;;;;4.43;4.13;;;;;;;21.65;37.92;99650.25;5108957;28;20218;-61
2022/09/25 10:11:10;;;;;;;5.15;4.65;;;;;;;21.52;37.88;99655.56;5109726;28;20205;-63
2022/09/25 10:13:39;;;;;;;4.50;4.15;;;;;;;21.58;37.88;99656.91;5110218;28;20221;-62
2022/09/25 10:16:15;;;;;;;4.30;3.85;;;;;;;21.64;37.52;99652.03;5110216;28;20195;-62
2022/09/25 10:18:49;;;;;;;5.05;4.75;;;;;;;21.70;37.64;99651.56;5110400;28;20285;-61
2022/09/25 10:21:20;;;;;;;4.68;4.38;;;;;;;21.62;37.83;99645.16;5110140;28;20190;-61
2022/09/25 10:23:51;;;;;;;5.82;5.32;;;;;;;21.71;38.11;99642.69;5110001;28;20195;-62
2022/09/25 10:26:28;;;;;;;4.57;4.28;;;;;;;21.81;38.03;99626.16;5110770;28;20201;-60
2022/09/25 10:28:57;;;;;;;7.10;4.38;;;;;;;21.83;37.64;99609.25;5111954;28;20644;-59
2022/09/25 10:31:29;;;;;;;4.78;4.38;;;;;;;21.88;37.38;99624.78;5109768;28;20686;-54
2022/09/25 10:34:04;;;;;;;4.32;3.95;;;;;;;21.94;37.06;99630.44;5109997;28;20360;-55
2022/09/25 10:36:37;;;;;;;4.40;4.00;;;;;;;21.87;36.87;99617.81;5110108;28;20198;-55
2022/09/25 10:39:05;;;;;;;4.70;4.30;;;;;;;21.78;37.13;99614.06;5109856;28;20195;-54
2022/09/25 10:41:43;;;;;;;4.28;3.88;;;;;;;21.74;37.65;99607.28;5109926;28;20202;-55
2022/09/25 10:44:22;;;;;;;4.53;4.32;;;;;;;21.84;37.92;99613.59;5110180;28;20196;-55
2022/09/25 10:52:48;;;;;;;3.72;3.53;;;;;;;21.96;37.81;99598.63;5110009;28;20245;-54
2022/09/25 10:55:23;;;;;;;6.20;4.05;;;;;;;22.05;38.13;99608.53;5109783;28;20205;-54
2022/09/25 10:57:58;;;;;;;4.32;3.92;;;;;;;22.05;37.55;99593.53;5108715;28;20190;-59
2022/09/25 11:00:26;;;;;;;5.65;3.92;;;;;;;21.94;37.74;99595.25;5108422;28;20193;-55
2022/09/25 11:02:58;;;;;;;3.90;3.70;;;;;;;21.85;38.42;99590.66;5108474;28;20607;-54
2022/09/25 11:05:29;;;;;;;4.43;3.70;;;;;;;21.73;38.29;99565.97;5108391;28;20202;-59
2022/09/25 11:07:59;;;;;;;4.80;4.07;;;;;;;21.82;38.39;99583.78;5105799;28;20187;-58
2022/09/25 11:10:28;;;;;;;4.55;4.05;;;;;;;21.85;38.37;99577.44;5109539;28;20285;-55
2022/09/25 11:12:57;;;;;;;6.18;4.13;;;;;;;21.70;38.28;99564.41;5109738;28;20254;-55
2022/09/25 11:15:26;;;;;;;4.20;3.90;;;;;;;21.87;37.91;99567.59;5109784;28;20198;-55
2022/09/25 11:17:57;;;;;;;4.50;4.10;;;;;;;21.90;38.28;99572.63;5108664;28;20195;-55
2022/09/25 11:20:28;;;;;;;5.47;4.10;;;;;;;21.89;38.73;99566.53;5108280;28;20202;-55
2022/09/25 11:23:13;;;;;;;4.38;4.05;;;;;;;22.05;37.92;99568.88;5107799;28;20229;-60
2022/09/25 11:25:46;;;;;;;4.75;4.03;;;;;;;22.04;38.30;99565.41;5106618;28;20213;-54
2022/09/25 11:28:21;;;;;;;4.63;4.30;;;;;;;22.14;37.82;99560.25;5103866;28;20214;-55
2022/09/25 11:30:54;;;;;;;4.03;3.83;;;;;;;22.13;38.03;99558.56;5096887;28;20218;-56
2022/09/25 11:33:33;;;;;;;4.10;3.67;;;;;;;22.18;37.40;99559.09;5108521;28;20301;-55
2022/09/25 11:36:06;;;;;;;4.43;4.03;;;;;;;22.19;37.85;99550.19;5109549;28;20226;-59
2022/09/25 11:41:33;;;;;;;4.15;3.90;;;;;;;22.36;37.21;99536.50;5109268;28;20591;-59
2022/09/25 11:44:17;;;;;;;6.07;4.22;;;;;;;22.27;37.29;99518.72;5110686;27;20218;-59
2022/09/25 11:46:51;;;;;;;4.68;4.38;;;;;;;22.36;37.57;99544.44;5113433;28;20218;-59
2022/09/25 11:49:23;;;;;;;4.47;4.07;;;;;;;22.45;37.86;99538.47;5108561;28;20210;-58
2022/09/25 11:52:22;;;;;;;4.13;3.88;;;;;;;22.50;37.20;99538.09;5111380;28;20218;-59
2022/09/25 11:55:14;;;;;;;5.22;4.93;;;;;;;22.51;37.28;99533.66;5049037;28;20217;-59
2022/09/25 11:57:51;;;;;;;4.13;3.92;;;;;;;22.38;37.16;99528.47;5082202;28;20227;-59
2022/09/25 12:00:22;;;;;;;4.38;4.03;;;;;;;22.24;37.37;99511.00;5112456;28;20214;-58
2022/09/25 12:03:07;;;;;;;4.97;4.68;;;;;;;22.42;37.96;99511.41;5112968;28;20223;-59
2022/09/25 12:05:51;;;;;;;4.47;4.28;;;;;;;22.46;37.25;99513.69;5112272;27;20221;-59
2022/09/25 12:08:41;;;;;;;4.47;4.22;;;;;;;22.43;37.44;99511.28;5112359;28;20260;-58